Time;durP1;ratioP1;P1;durP2;ratioP2;P2;SDS_P1;SDS_P2;PMS_P1;PMS_P2;Temp;Humidity;BMP_temperature;BMP_pressure;BME280_temperature;BME280_humidity;BME280_pressure;Samples;Min_cycle;Max_cycle;Signal;HPM_P1;HPM_P2
2022/08/01 00:01:28;;;;;;;;;1.00;1.00;;;;;25.37;49.11;101429.88;5019622;28;45436;-65
2022/08/01 00:03:53;;;;;;;;;1.00;1.00;;;;;25.36;49.25;101430.88;5019663;28;45512;-65
2022/08/01 00:06:19;;;;;;;;;1.00;1.00;;;;;25.40;49.48;101439.69;5019537;28;45514;-65
2022/08/01 00:08:44;;;;;;;;;1.00;1.00;;;;;25.39;48.96;101441.53;5019493;28;46106;-65
2022/08/01 00:11:09;;;;;;;;;1.00;1.00;;;;;25.41;49.50;101439.56;5018920;28;58236;-65
2022/08/01 00:13:35;;;;;;;;;2.00;1.00;;;;;25.41;49.22;101441.41;5019320;28;45278;-65
2022/08/01 00:16:00;;;;;;;;;0.00;0.00;;;;;25.39;49.60;101436.06;5019393;28;45390;-65
2022/08/01 00:18:26;;;;;;;;;1.00;1.00;;;;;25.40;49.41;101428.75;5019473;28;46407;-65
2022/08/01 00:20:51;;;;;;;;;0.00;0.00;;;;;25.40;48.97;101431.50;5017378;28;45315;-65
2022/08/01 00:23:17;;;;;;;;;1.00;1.00;;;;;25.40;49.42;101429.63;5019443;28;45348;-65
2022/08/01 00:25:42;;;;;;;;;0.00;0.00;;;;;25.41;49.21;101430.47;5019377;28;45143;-65
2022/08/01 00:28:08;;;;;;;;;0.00;0.00;;;;;25.39;49.67;101435.22;5019086;28;45237;-65
2022/08/01 00:30:34;;;;;;;;;1.00;1.00;;;;;25.38;48.95;101428.88;5019163;28;45360;-65
2022/08/01 00:33:00;;;;;;;;;0.25;0.25;;;;;25.36;49.08;101419.97;5019587;28;45168;-65
2022/08/01 00:35:25;;;;;;;;;1.25;0.25;;;;;25.35;49.47;101418.22;5020687;28;45602;-65
2022/08/01 00:37:51;;;;;;;;;0.25;0.25;;;;;25.31;49.43;101424.94;5022712;28;46911;-65
2022/08/01 00:40:16;;;;;;;;;0.75;0.75;;;;;25.28;49.06;101415.13;5022529;28;45347;-65
2022/08/01 00:42:42;;;;;;;;;0.75;0.75;;;;;25.23;49.73;101413.75;5022428;28;45297;-65
2022/08/01 00:45:08;;;;;;;;;0.00;0.00;;;;;25.24;49.07;101415.47;5022318;28;45320;-65
2022/08/01 00:47:33;;;;;;;;;1.00;1.00;;;;;25.20;49.87;101416.75;5022441;28;46017;-65
2022/08/01 00:49:58;;;;;;;;;0.75;0.75;;;;;25.18;49.38;101413.28;5022372;28;45311;-65
2022/08/01 00:52:24;;;;;;;;;0.00;0.00;;;;;25.13;50.04;101414.50;5021591;28;45580;-65
2022/08/01 00:54:50;;;;;;;;;0.75;0.75;;;;;25.05;50.15;101405.22;5022210;28;45344;-65
2022/08/01 00:57:15;;;;;;;;;0.75;0.75;;;;;25.04;50.10;101412.56;5022049;28;46491;-65
2022/08/01 00:59:40;;;;;;;;;0.00;0.00;;;;;25.03;49.76;101408.09;5022077;28;45366;-65
2022/08/01 01:02:06;;;;;;;;;0.00;0.00;;;;;25.04;50.22;101409.84;5022272;28;45353;-65
2022/08/01 01:04:31;;;;;;;;;0.00;0.00;;;;;25.05;50.26;101408.81;5022287;28;45517;-65
2022/08/01 01:07:09;;;;;;;;;0.00;0.00;;;;;25.04;50.26;101408.94;5022031;28;45944;-65
2022/08/01 01:09:37;;;;;;;;;0.50;0.50;;;;;25.04;50.42;101408.94;5022212;28;45629;-65
2022/08/01 01:12:47;;;;;;;;;0.25;0.25;;;;;25.01;49.78;101407.34;5022160;28;45329;-65
2022/08/01 01:15:36;;;;;;;;;0.00;0.00;;;;;25.01;50.14;101406.47;5019906;28;45169;-65
2022/08/01 01:18:06;;;;;;;;;1.00;0.25;;;;;25.00;50.11;101411.06;5021914;28;47477;-65
2022/08/01 01:20:42;;;;;;;;;0.00;0.00;;;;;25.02;50.22;101400.88;5021103;28;45892;-65
2022/08/01 01:23:15;;;;;;;;;0.00;0.00;;;;;25.00;49.71;101404.75;5019883;28;45150;-65
2022/08/01 01:26:00;;;;;;;;;0.00;0.00;;;;;24.96;49.87;101401.41;5021831;28;45251;-65
2022/08/01 01:28:57;;;;;;;;;0.00;0.00;;;;;24.98;50.43;101402.13;5021703;28;45327;-65
2022/08/01 01:31:25;;;;;;;;;0.00;0.00;;;;;24.95;50.08;101402.38;5020889;28;45691;-65
2022/08/01 01:33:53;;;;;;;;;0.00;0.00;;;;;24.94;50.32;101404.25;5021898;28;45264;-65
2022/08/01 01:36:21;;;;;;;;;0.75;0.75;;;;;24.93;49.81;101409.84;5021659;28;45609;-65
2022/08/01 01:38:49;;;;;;;;;0.00;0.00;;;;;24.90;50.74;101410.97;5021729;28;46620;-65
2022/08/01 01:41:17;;;;;;;;;0.00;0.00;;;;;24.91;50.56;101403.66;5021658;28;45397;-65
2022/08/01 01:43:46;;;;;;;;;1.00;1.00;;;;;24.90;50.75;101400.03;5021314;28;45305;-65
2022/08/01 01:46:12;;;;;;;;;0.00;0.00;;;;;24.87;50.24;101400.28;5020809;28;45388;-65
2022/08/01 01:48:39;;;;;;;;;0.00;0.00;;;;;24.87;50.15;101399.44;5021373;28;45170;-65
2022/08/01 01:51:05;;;;;;;;;0.00;0.00;;;;;24.85;49.95;101396.81;5020732;28;45198;-65
2022/08/01 01:53:33;;;;;;;;;0.00;0.00;;;;;24.85;50.26;101395.97;5020668;28;45163;-65
2022/08/01 01:56:01;;;;;;;;;0.25;0.00;;;;;24.84;50.78;101391.47;5021499;28;45558;-65
2022/08/01 01:58:30;;;;;;;;;0.00;0.00;;;;;24.82;50.24;101390.75;5020950;28;46309;-65
2022/08/01 02:00:58;;;;;;;;;0.00;0.00;;;;;24.82;50.77;101390.75;5021457;28;45231;-65
2022/08/01 02:03:26;;;;;;;;;0.25;0.00;;;;;24.80;50.39;101390.88;5021322;28;45323;-65
2022/08/01 02:05:54;;;;;;;;;0.00;0.00;;;;;24.80;50.35;101399.06;5021414;28;45513;-65
2022/08/01 02:08:21;;;;;;;;;1.25;0.25;;;;;24.80;50.39;101399.06;5021254;28;46461;-65
2022/08/01 02:11:17;;;;;;;;;0.00;0.00;;;;;24.81;50.53;101394.47;5021360;28;45162;-65
2022/08/01 02:13:34;;;;;;;;;1.00;1.00;;;;;24.82;50.23;101394.34;5020731;28;45336;-65
2022/08/01 02:16:00;;;;;;;;;0.00;0.00;;;;;24.84;50.15;101394.22;5021085;28;45298;-65
2022/08/01 02:18:26;;;;;;;;;0.75;0.25;;;;;24.83;50.13;101393.34;5021054;28;45317;-65
2022/08/01 02:20:54;;;;;;;;;0.50;0.00;;;;;24.85;50.57;101391.38;5020293;28;45302;-65
2022/08/01 02:23:22;;;;;;;;;0.00;0.00;;;;;24.83;50.80;101392.50;5008067;28;45212;-65
2022/08/01 02:25:52;;;;;;;;;1.00;0.00;;;;;24.81;50.85;101389.00;5021012;28;45320;-65
2022/08/01 02:28:27;;;;;;;;;1.00;0.50;;;;;24.79;50.68;101386.41;5020614;28;46230;-65
2022/08/01 02:30:54;;;;;;;;;0.00;0.00;;;;;24.76;50.44;101382.06;5020816;28;45167;-65
2022/08/01 02:33:24;;;;;;;;;0.00;0.00;;;;;24.75;50.40;101385.78;5021110;28;45510;-65
2022/08/01 02:35:53;;;;;;;;;1.00;1.00;;;;;24.74;50.59;101391.38;5020681;28;45412;-65
2022/08/01 02:38:23;;;;;;;;;0.25;0.25;;;;;24.70;51.02;101388.03;5020828;28;46302;-65
2022/08/01 02:40:52;;;;;;;;;1.00;1.00;;;;;24.74;50.50;101388.63;5020716;28;45382;-65
2022/08/01 02:43:23;;;;;;;;;0.00;0.00;;;;;24.73;51.10;101392.38;5020452;28;45350;-65
2022/08/01 02:45:53;;;;;;;;;0.25;0.25;;;;;24.71;50.99;101392.50;5020570;28;45375;-65
2022/08/01 02:48:21;;;;;;;;;0.00;0.00;;;;;24.70;51.07;101385.28;5020616;28;46183;-65
2022/08/01 02:50:49;;;;;;;;;1.00;1.00;;;;;24.70;51.02;101382.56;5019386;28;45390;-65
2022/08/01 02:53:17;;;;;;;;;0.00;0.00;;;;;24.65;50.81;101379.34;5020551;28;45366;-65
2022/08/01 02:55:44;;;;;;;;;0.75;0.75;;;;;24.67;51.55;101382.81;5020648;28;45466;-65
2022/08/01 02:58:12;;;;;;;;;0.75;0.75;;;;;24.66;51.42;101386.56;5019700;28;45286;-65
2022/08/01 03:00:40;;;;;;;;;1.75;0.25;;;;;24.67;50.94;101391.00;5020668;28;45344;-65
2022/08/01 03:03:07;;;;;;;;;0.00;0.00;;;;;24.70;50.90;101384.44;5020587;28;45335;-65
2022/08/01 03:05:34;;;;;;;;;0.50;0.00;;;;;24.69;51.41;101389.03;5020459;28;45256;-65
2022/08/01 03:08:00;;;;;;;;;0.50;0.50;;;;;24.69;50.95;101380.84;5020258;28;46500;-65
2022/08/01 03:10:30;;;;;;;;;1.50;0.50;;;;;24.69;50.96;101382.69;5020351;28;45380;-65
2022/08/01 03:12:59;;;;;;;;;0.00;0.00;;;;;24.71;51.13;101380.72;5020155;28;45324;-65
2022/08/01 03:15:28;;;;;;;;;1.00;1.00;;;;;24.69;50.72;101389.03;5020160;28;45698;-65
2022/08/01 03:17:55;;;;;;;;;0.00;0.00;;;;;24.67;51.14;101385.53;5020142;28;45315;-65
2022/08/01 03:20:24;;;;;;;;;0.00;0.00;;;;;24.68;50.72;101386.44;5019251;28;45511;-65
2022/08/01 03:22:52;;;;;;;;;0.00;0.00;;;;;24.65;51.07;101379.34;5020226;28;45268;-65
2022/08/01 03:25:20;;;;;;;;;0.75;0.75;;;;;24.64;51.66;101388.56;5020181;28;45478;-65
2022/08/01 03:27:53;;;;;;;;;1.50;1.00;;;;;24.67;51.13;101390.16;5019828;28;45606;-65
2022/08/01 03:30:21;;;;;;;;;0.75;0.75;;;;;24.69;50.90;101397.22;5020065;28;45522;-65
2022/08/01 03:32:46;;;;;;;;;0.25;0.25;;;;;24.69;50.88;101386.31;5020111;28;45508;-65
2022/08/01 03:35:11;;;;;;;;;0.00;0.00;;;;;24.71;50.82;101394.38;5017998;28;45380;-65
2022/08/01 03:37:45;;;;;;;;;0.00;0.00;;;;;24.72;51.05;101391.50;5018774;28;46292;-65
2022/08/01 03:40:13;;;;;;;;;0.25;0.00;;;;;24.72;51.29;101394.22;5019938;28;45407;-65
2022/08/01 03:42:43;;;;;;;;;0.75;0.75;;;;;24.74;51.49;101396.81;5019635;28;45272;-65
2022/08/01 03:45:15;;;;;;;;;1.00;1.00;;;;;24.70;51.35;101396.22;5019677;28;45344;-65
2022/08/01 03:47:43;;;;;;;;;1.00;1.00;;;;;24.71;50.95;101395.25;5019816;28;45525;-65
2022/08/01 03:50:10;;;;;;;;;1.00;1.00;;;;;24.73;51.07;101395.13;5019729;28;45316;-65
2022/08/01 03:52:39;;;;;;;;;0.00;0.00;;;;;24.72;51.17;101390.63;5019783;28;45457;-65
2022/08/01 03:55:07;;;;;;;;;1.00;1.00;;;;;24.75;51.12;101407.63;5019617;28;45533;-65
2022/08/01 03:57:34;;;;;;;;;0.00;0.00;;;;;24.73;51.87;101395.97;5019342;28;45429;-65
2022/08/01 04:00:00;;;;;;;;;0.75;0.75;;;;;24.72;51.46;101396.09;5019674;28;46365;-65
2022/08/01 04:02:27;;;;;;;;;0.75;0.75;;;;;24.75;51.93;101401.31;5019848;28;45618;-65
2022/08/01 04:04:53;;;;;;;;;0.00;0.00;;;;;24.75;51.23;101399.44;5018613;28;45352;-65
2022/08/01 04:07:27;;;;;;;;;0.00;0.00;;;;;24.71;51.27;101392.50;5019514;28;46569;-65
2022/08/01 04:09:53;;;;;;;;;0.75;0.75;;;;;24.67;51.35;101385.53;5020353;28;45340;-65
2022/08/01 04:12:18;;;;;;;;;0.00;0.00;;;;;24.69;51.31;101396.34;5023195;28;45233;-65
2022/08/01 04:14:44;;;;;;;;;1.00;1.00;;;;;24.67;51.43;101381.97;5022663;28;45316;-65
2022/08/01 04:17:09;;;;;;;;;0.00;0.00;;;;;24.66;51.44;101378.38;5022807;28;46279;-65
2022/08/01 04:19:35;;;;;;;;;0.50;0.50;;;;;24.69;51.36;101389.03;5022972;28;45427;-65
2022/08/01 04:22:02;;;;;;;;;0.50;0.50;;;;;24.70;51.20;101389.91;5023207;28;45293;-65
2022/08/01 04:24:29;;;;;;;;;0.00;0.00;;;;;24.70;51.73;101381.72;5022756;28;45339;-65
2022/08/01 04:26:58;;;;;;;;;0.25;0.25;;;;;24.70;51.31;101385.28;5022625;28;46322;-65
2022/08/01 04:29:25;;;;;;;;;0.25;0.25;;;;;24.71;51.38;101378.00;5022633;28;45331;-65
2022/08/01 04:31:54;;;;;;;;;0.00;0.00;;;;;24.71;51.67;101373.41;5023108;28;45455;-65
2022/08/01 04:34:22;;;;;;;;;0.25;0.25;;;;;24.68;51.61;101375.53;5022633;28;45300;-65
2022/08/01 04:36:51;;;;;;;;;0.00;0.00;;;;;24.71;51.58;101370.66;5021628;28;45405;-65
2022/08/01 04:39:18;;;;;;;;;0.00;0.00;;;;;24.68;51.33;101370.91;5022430;28;45441;-65
2022/08/01 04:41:46;;;;;;;;;0.25;0.25;;;;;24.69;51.35;101375.41;5022659;28;45340;-65
2022/08/01 04:44:13;;;;;;;;;1.00;1.00;;;;;24.68;51.96;101381.84;5022268;28;45467;-65
2022/08/01 04:46:39;;;;;;;;;1.00;1.00;;;;;24.66;51.30;101389.28;5022576;28;46381;-65
2022/08/01 04:49:08;;;;;;;;;0.50;0.50;;;;;24.62;51.52;101374.13;5022397;28;45245;-65
2022/08/01 04:51:34;;;;;;;;;1.00;1.00;;;;;24.65;51.81;101382.09;5022405;28;45434;-65
2022/08/01 04:54:00;;;;;;;;;1.00;1.00;;;;;24.66;51.84;101385.66;5022199;28;45321;-65
2022/08/01 04:56:26;;;;;;;;;0.00;0.00;;;;;24.63;51.65;101385.94;5022176;28;46629;-65
2022/08/01 04:59:39;;;;;;;;;1.00;1.00;;;;;24.62;52.09;101382.31;5022071;28;45388;-65
2022/08/01 05:01:37;;;;;;;;;0.25;0.25;;;;;24.64;52.01;101382.22;5022253;28;46678;-65
2022/08/01 05:04:03;;;;;;;;;1.25;0.25;;;;;24.67;51.83;101392.88;5022066;28;45227;-65
2022/08/01 05:06:28;;;;;;;;;0.25;0.25;;;;;24.68;51.78;101392.75;5020919;28;45328;-65
2022/08/01 05:08:54;;;;;;;;;0.50;0.50;;;;;24.66;51.89;101392.03;5020483;28;45262;-65
2022/08/01 05:11:19;;;;;;;;;0.00;0.00;;;;;24.67;52.41;101398.34;5021980;28;45301;-65
2022/08/01 05:13:44;;;;;;;;;0.00;0.00;;;;;24.65;52.16;101397.59;5021635;28;45666;-65
2022/08/01 05:16:10;;;;;;;;;1.00;1.00;;;;;24.63;52.08;101405.91;5021555;28;50448;-65
2022/08/01 05:18:35;;;;;;;;;1.00;1.00;;;;;24.65;52.39;101411.25;5022121;28;45206;-65
2022/08/01 05:21:01;;;;;;;;;0.25;0.25;;;;;24.61;52.93;101407.91;5021810;28;45229;-65
2022/08/01 05:23:27;;;;;;;;;1.00;1.00;;;;;24.65;52.37;101409.38;5022026;28;45296;-65
2022/08/01 05:25:52;;;;;;;;;0.00;0.00;;;;;24.64;52.44;101399.47;5021759;28;46839;-65
2022/08/01 05:28:17;;;;;;;;;1.75;1.75;;;;;24.65;52.70;101412.09;5021679;28;45249;-65
2022/08/01 05:30:43;;;;;;;;;0.00;0.00;;;;;24.66;52.69;101410.25;5021336;28;54650;-65
2022/08/01 05:33:08;;;;;;;;;1.00;1.00;;;;;24.65;52.29;101405.78;5021814;28;45631;-65
2022/08/01 05:35:33;;;;;;;;;0.25;0.25;;;;;24.65;52.20;101408.53;5020541;28;45548;-65
2022/08/01 05:37:58;;;;;;;;;1.00;1.00;;;;;24.65;52.44;101411.25;5021546;28;45389;-65
2022/08/01 05:40:24;;;;;;;;;1.00;1.00;;;;;24.66;52.14;101407.50;5021513;28;46156;-65
2022/08/01 05:42:49;;;;;;;;;1.00;1.00;;;;;24.65;52.69;101403.06;5021509;28;45295;-65
2022/08/01 05:45:14;;;;;;;;;2.00;1.00;;;;;24.64;52.57;101406.78;5021194;28;46182;-65
2022/08/01 05:47:40;;;;;;;;;0.75;0.00;;;;;24.61;52.24;101405.19;5021578;28;46203;-65
2022/08/01 05:50:05;;;;;;;;;0.25;0.25;;;;;24.63;52.18;101414.09;5021030;28;53280;-65
2022/08/01 05:52:31;;;;;;;;;0.50;0.50;;;;;24.61;52.21;101410.63;5021273;28;45425;-65
2022/08/01 05:54:56;;;;;;;;;1.00;0.00;;;;;24.58;52.17;101411.75;5021451;28;46518;-65
2022/08/01 05:57:21;;;;;;;;;0.25;0.25;;;;;24.57;52.54;101410.03;5021470;28;45445;-65
2022/08/01 05:59:47;;;;;;;;;1.00;1.00;;;;;24.58;52.75;101417.19;5021316;28;45279;-65
2022/08/01 06:02:12;;;;;;;;;3.00;1.00;;;;;24.58;52.31;101413.59;5021317;28;45208;-65
2022/08/01 06:04:37;;;;;;;;;0.25;0.25;;;;;24.60;52.24;101428.00;5020076;28;45213;-65
2022/08/01 06:07:03;;;;;;;;;1.00;0.50;;;;;24.57;51.79;101425.50;5018861;28;45300;-65
2022/08/01 06:09:30;;;;;;;;;1.25;1.00;;;;;24.56;52.57;101431.97;5021385;28;45368;-65
2022/08/01 06:11:55;;;;;;;;;0.00;0.00;;;;;24.55;52.35;101428.34;5021210;28;45246;-65
2022/08/01 06:14:21;;;;;;;;;1.00;1.00;;;;;24.55;52.56;101430.22;5020728;28;45413;-65
2022/08/01 06:16:46;;;;;;;;;0.50;0.50;;;;;24.53;52.16;101435.78;5020908;28;54053;-65
2022/08/01 06:19:11;;;;;;;;;0.00;0.00;;;;;24.51;52.19;101432.31;5021314;28;45434;-65
2022/08/01 06:21:36;;;;;;;;;0.00;0.00;;;;;24.49;52.34;101422.50;5021041;28;51820;-65
2022/08/01 06:24:02;;;;;;;;;1.50;1.00;;;;;24.47;52.75;101424.47;5021227;28;45422;-65
2022/08/01 06:26:27;;;;;;;;;1.75;0.25;;;;;24.48;52.57;101426.22;5020939;28;45299;-65
2022/08/01 06:28:52;;;;;;;;;0.75;0.75;;;;;24.48;52.64;101429.81;5020576;28;45302;-65
2022/08/01 06:31:18;;;;;;;;;0.50;0.50;;;;;24.48;52.54;101435.28;5020972;28;45375;-65
2022/08/01 06:33:43;;;;;;;;;1.00;1.00;;;;;24.48;52.55;101426.22;5019878;28;46231;-65
2022/08/01 06:36:09;;;;;;;;;0.25;0.25;;;;;24.47;52.62;101429.94;5018004;28;45313;-65
2022/08/01 06:38:34;;;;;;;;;0.25;0.25;;;;;24.48;52.57;101423.50;5019991;28;45620;-65
2022/08/01 06:40:59;;;;;;;;;0.25;0.25;;;;;24.47;52.18;101427.22;5019022;28;45568;-65
2022/08/01 06:43:25;;;;;;;;;0.75;0.75;;;;;24.43;52.74;101426.59;5020102;28;46221;-65
2022/08/01 06:45:50;;;;;;;;;2.00;1.50;;;;;24.46;52.27;101428.19;5020436;28;45419;-65
2022/08/01 06:48:15;;;;;;;;;1.50;1.50;;;;;24.45;52.31;101423.75;5020922;28;45229;-65
2022/08/01 06:50:41;;;;;;;;;0.00;0.00;;;;;24.45;52.51;101426.47;5020434;28;45270;-65
2022/08/01 06:53:06;;;;;;;;;0.00;0.00;;;;;24.47;52.28;101432.66;5020349;28;46136;-65
2022/08/01 06:55:32;;;;;;;;;1.75;0.75;;;;;24.48;52.58;101428.97;5020332;28;45237;-65
2022/08/01 06:57:57;;;;;;;;;1.00;1.00;;;;;24.48;52.82;101420.78;5020237;28;45212;-65
2022/08/01 07:00:24;;;;;;;;;1.25;1.25;;;;;24.47;52.46;101421.75;5020242;28;45529;-65
2022/08/01 07:02:54;;;;;;;;;2.75;1.75;;;;;24.44;52.49;101428.34;5020379;28;45423;-65
2022/08/01 07:05:21;;;;;;;;;1.00;1.00;;;;;24.45;52.60;101423.75;5020170;28;45394;-65
2022/08/01 07:07:46;;;;;;;;;2.00;0.75;;;;;24.48;52.76;101431.69;5020401;28;45253;-65
2022/08/01 07:10:11;;;;;;;;;1.75;1.00;;;;;24.47;53.12;101429.94;5019295;28;45485;-65
2022/08/01 07:12:37;;;;;;;;;3.00;1.75;;;;;24.48;52.45;101423.50;5019791;28;46371;-65
2022/08/01 07:15:07;;;;;;;;;0.25;0.25;;;;;24.50;52.52;101435.16;5020043;28;45372;-65
2022/08/01 07:17:37;;;;;;;;;0.75;0.75;;;;;24.50;52.46;101430.56;5020162;28;45365;-65
2022/08/01 07:20:03;;;;;;;;;1.75;1.75;;;;;24.49;53.09;101431.56;5020291;28;45411;-65
2022/08/01 07:22:28;;;;;;;;;1.00;1.00;;;;;24.51;52.44;101426.00;5019910;28;46173;-65
2022/08/01 07:24:54;;;;;;;;;1.00;1.00;;;;;24.50;52.83;101438.75;5019706;28;56197;-65
2022/08/01 07:27:19;;;;;;;;;1.00;1.00;;;;;24.48;52.91;101432.56;5018726;28;45209;-65
2022/08/01 07:29:44;;;;;;;;;2.50;2.50;;;;;24.41;53.07;101420.41;5019765;28;49167;-65
2022/08/01 07:32:09;;;;;;;;;2.00;1.50;;;;;24.44;52.79;101435.63;5019820;28;46925;-65
2022/08/01 07:34:35;;;;;;;;;1.00;1.00;;;;;24.44;52.98;101438.38;5019983;28;45574;-65
2022/08/01 07:37:00;;;;;;;;;1.00;1.00;;;;;24.45;52.98;101431.94;5017998;28;45328;-65
2022/08/01 07:39:25;;;;;;;;;1.00;1.00;;;;;24.43;52.68;101437.50;5019926;28;45245;-65
2022/08/01 07:41:51;;;;;;;;;2.00;2.00;;;;;24.45;53.21;101435.53;5019461;28;49868;-65
2022/08/01 07:44:16;;;;;;;;;0.25;0.25;;;;;24.44;53.36;101442.00;5020764;28;49725;-65
2022/08/01 07:46:41;;;;;;;;;1.00;1.00;;;;;24.46;53.48;101452.75;5022251;28;53093;-65
2022/08/01 07:49:07;;;;;;;;;2.00;2.00;;;;;24.39;53.28;101438.72;5023090;28;46481;-65
2022/08/01 07:51:33;;;;;;;;;1.75;1.75;;;;;24.39;52.88;101444.19;5023142;28;45350;-65
2022/08/01 07:53:58;;;;;;;;;4.00;1.00;;;;;24.45;53.23;101457.34;5023088;28;45287;-65
2022/08/01 07:56:25;;;;;;;;;2.25;2.25;;;;;24.45;52.95;101454.63;5023162;28;46150;-65
2022/08/01 07:58:50;;;;;;;;;2.00;2.00;;;;;24.47;53.12;101454.50;5022802;28;45304;-65
2022/08/01 08:01:16;;;;;;;;;1.75;1.75;;;;;24.50;52.84;101462.44;5023104;28;46052;-65
2022/08/01 08:03:41;;;;;;;;;2.25;2.25;;;;;24.50;52.59;101470.63;5022847;28;45313;-65
2022/08/01 08:06:06;;;;;;;;;2.75;2.75;;;;;24.48;52.99;101458.97;5022227;28;45236;-65
2022/08/01 08:08:34;;;;;;;;;2.25;2.25;;;;;24.50;52.76;101462.44;5021353;28;45367;-65
2022/08/01 08:10:59;;;;;;;;;2.25;2.25;;;;;24.50;52.40;101468.75;5022869;28;46865;-65
2022/08/01 08:13:25;;;;;;;;;2.25;2.25;;;;;24.51;52.89;101465.06;5022532;28;45313;-65
2022/08/01 08:15:50;;;;;;;;;2.00;2.00;;;;;24.51;52.97;101465.06;5022760;28;45182;-65
2022/08/01 08:18:15;;;;;;;;;2.25;2.25;;;;;24.51;52.72;101465.06;5021362;28;45249;-65
2022/08/01 08:20:41;;;;;;;;;2.50;2.50;;;;;24.51;52.25;101466.94;5021271;28;46244;-65
2022/08/01 08:24:19;;;;;;;;;2.00;2.00;;;;;24.54;52.76;101469.38;5022466;28;49061;-65
2022/08/01 08:25:51;;;;;;;;;0.75;0.75;;;;;24.53;52.56;101463.06;5022746;28;45225;-65
2022/08/01 08:28:17;;;;;;;;;2.50;2.50;;;;;24.56;52.67;101462.84;5022419;28;45641;-65
2022/08/01 08:30:42;;;;;;;;;2.00;2.00;;;;;24.58;52.35;101458.13;5022496;28;51188;-65
2022/08/01 08:33:07;;;;;;;;;5.00;3.50;;;;;24.58;52.50;101455.41;5022537;28;46183;-65
2022/08/01 08:35:33;;;;;;;;;2.00;2.00;;;;;24.61;52.42;101473.41;5022454;28;45382;-65
2022/08/01 08:37:58;;;;;;;;;2.25;1.25;;;;;24.62;52.37;101466.94;5022212;28;50730;-65
2022/08/01 08:40:29;;;;;;;;;2.75;2.75;;;;;24.61;51.97;101462.50;5022497;28;46187;-65
2022/08/01 08:42:56;;;;;;;;;3.00;3.00;;;;;24.63;52.03;101451.47;5022241;28;45331;-65
2022/08/01 08:45:21;;;;;;;;;5.00;4.50;;;;;24.62;52.49;101453.28;5022490;28;45367;-65
2022/08/01 08:47:48;;;;;;;;;3.25;3.25;;;;;24.62;51.89;101444.25;5022565;28;45431;-65
2022/08/01 08:50:14;;;;;;;;;2.00;2.00;;;;;24.65;52.04;101446.72;5022229;28;47103;-65
2022/08/01 08:52:42;;;;;;;;;1.50;1.50;;;;;24.64;51.87;101440.41;5021141;28;45316;-65
2022/08/01 08:55:08;;;;;;;;;5.75;2.75;;;;;24.66;51.72;101440.25;5021949;28;45299;-65
2022/08/01 08:57:34;;;;;;;;;3.00;3.00;;;;;24.69;51.54;101435.44;5021747;28;45464;-65
2022/08/01 09:00:00;;;;;;;;;2.00;2.00;;;;;24.71;52.09;101438.06;5022207;28;45222;-65
2022/08/01 09:02:25;;;;;;;;;1.75;1.75;;;;;24.74;51.60;101437.78;5022075;28;45311;-65
2022/08/01 09:04:51;;;;;;;;;2.50;1.25;;;;;24.72;51.54;101426.97;5022370;28;45324;-65
2022/08/01 09:07:16;;;;;;;;;1.25;1.25;;;;;24.75;51.48;101434.94;5022203;28;45289;-65
2022/08/01 09:09:41;;;;;;;;;1.50;1.50;;;;;24.74;51.33;101427.75;5022131;28;46257;-65
2022/08/01 09:12:07;;;;;;;;;1.00;1.00;;;;;24.75;51.84;101428.59;5021257;28;45351;-65
2022/08/01 09:14:34;;;;;;;;;1.25;1.25;;;;;24.76;51.42;101435.81;5020528;28;45804;-65
2022/08/01 09:17:07;;;;;;;;;0.25;0.25;;;;;24.81;51.44;101435.41;5021939;28;45268;-65
2022/08/01 09:19:42;;;;;;;;;2.00;2.00;;;;;24.82;51.23;101442.63;5021651;28;46214;-65
2022/08/01 09:22:18;;;;;;;;;1.00;1.00;;;;;24.85;50.73;101447.84;5021965;28;45469;-65
2022/08/01 09:25:08;;;;;;;;;1.00;1.00;;;;;24.85;50.64;101447.84;5020296;28;45412;-65
2022/08/01 09:27:34;;;;;;;;;1.75;1.75;;;;;24.85;51.24;101456.88;5017151;28;45454;-65
2022/08/01 09:30:26;;;;;;;;;3.00;1.00;;;;;24.86;51.48;101455.03;5021653;28;46750;-65
2022/08/01 09:33:00;;;;;;;;;1.75;1.75;;;;;24.86;51.23;101455.03;5019443;28;45376;-65
2022/08/01 09:35:29;;;;;;;;;1.00;1.00;;;;;24.88;50.49;101456.66;5021823;28;45334;-65
2022/08/01 09:38:11;;;;;;;;;1.25;0.25;;;;;24.89;49.86;101452.03;5021532;28;45269;-65
2022/08/01 09:40:57;;;;;;;;;1.25;1.25;;;;;24.91;50.58;101450.94;5021590;28;45332;-65
2022/08/01 09:43:25;;;;;;;;;2.00;2.00;;;;;24.89;50.15;101446.59;5021076;28;45399;-65
2022/08/01 09:45:51;;;;;;;;;1.75;1.75;;;;;24.90;50.84;101446.47;5021555;28;45233;-65
2022/08/01 09:48:18;;;;;;;;;1.75;1.50;;;;;24.90;50.58;101451.06;5020668;28;45237;-65
2022/08/01 09:50:50;;;;;;;;;1.00;1.00;;;;;24.89;50.97;101460.22;5021102;28;45422;-65
2022/08/01 09:53:16;;;;;;;;;2.00;2.00;;;;;24.90;50.58;101464.72;5021221;28;45307;-65
2022/08/01 09:55:42;;;;;;;;;1.00;1.00;;;;;24.87;50.39;101471.28;5021720;28;45396;-65
2022/08/01 09:58:10;;;;;;;;;2.00;1.25;;;;;24.89;50.67;101465.69;5021179;28;45594;-65
2022/08/01 10:00:35;;;;;;;;;0.75;0.75;;;;;24.89;50.35;101466.59;5021405;28;46235;-65
2022/08/01 10:03:25;;;;;;;;;2.00;2.00;;;;;24.92;50.21;101454.53;5021163;28;45400;-65
2022/08/01 10:05:51;;;;;;;;;0.25;0.25;;;;;24.94;51.07;101449.78;5021340;28;45229;-65
2022/08/01 10:08:18;;;;;;;;;1.00;1.00;;;;;24.96;51.04;101450.56;5019893;28;45167;-65
2022/08/01 10:11:10;;;;;;;;;2.00;2.00;;;;;24.99;50.37;101452.16;5021242;28;46162;-65
2022/08/01 10:13:36;;;;;;;;;1.75;1.75;;;;;24.99;50.57;101458.47;5021040;28;45184;-65
2022/08/01 10:16:03;;;;;;;;;1.75;1.50;;;;;25.03;50.10;101459.97;5020948;28;45462;-65
2022/08/01 10:18:32;;;;;;;;;2.00;2.00;;;;;25.03;50.91;101454.53;5018764;28;45320;-65
2022/08/01 10:20:59;;;;;;;;;2.50;1.00;;;;;25.06;50.44;101454.28;5020049;28;47115;-65
2022/08/01 10:23:34;;;;;;;;;1.00;1.00;;;;;25.09;50.80;101456.75;5020151;28;45338;-65
2022/08/01 10:26:01;;;;;;;;;2.00;2.00;;;;;25.14;50.74;101459.06;5017477;28;45442;-65
2022/08/01 10:28:30;;;;;;;;;1.50;1.50;;;;;25.17;50.94;101455.25;5020659;28;45241;-65
2022/08/01 10:30:57;;;;;;;;;1.25;1.25;;;;;25.19;50.86;101462.28;5020846;28;45544;-65
2022/08/01 10:33:23;;;;;;;;;3.00;3.00;;;;;25.21;50.54;101465.78;5020818;28;45343;-65
2022/08/01 10:35:50;;;;;;;;;1.00;1.00;;;;;25.25;50.32;101458.19;5020823;28;45156;-65
2022/08/01 10:38:16;;;;;;;;;2.75;2.75;;;;;25.28;50.47;101461.56;5020830;28;45442;-65
2022/08/01 10:40:43;;;;;;;;;2.00;2.00;;;;;25.31;50.06;101461.31;5020892;28;46397;-65
2022/08/01 10:43:10;;;;;;;;;2.75;2.75;;;;;25.36;49.64;101455.47;5020268;28;45436;-65
2022/08/01 10:45:35;;;;;;;;;2.75;2.75;;;;;25.38;49.42;101449.88;5020656;28;45391;-65
2022/08/01 10:48:09;;;;;;;;;2.50;2.50;;;;;25.39;49.59;101448.88;5020706;28;45348;-65
2022/08/01 10:50:41;;;;;;;;;3.00;2.00;;;;;25.40;49.42;101456.94;5020198;28;46318;-65
2022/08/01 10:53:16;;;;;;;;;3.00;3.00;;;;;25.41;48.88;101464.16;5020431;28;45239;-65
2022/08/01 10:55:55;;;;;;;;;2.00;2.00;;;;;25.42;49.50;101457.69;5019557;28;45316;-65
2022/08/01 10:58:37;;;;;;;;;5.25;3.00;;;;;25.42;49.36;101457.69;5020145;28;45318;-65
2022/08/01 11:01:14;;;;;;;;;2.50;2.50;;;;;25.43;49.96;101450.38;5020351;28;46854;-65
2022/08/01 11:03:44;;;;;;;;;3.00;3.00;;;;;25.42;49.59;101456.81;5020082;28;45367;-65
2022/08/01 11:06:17;;;;;;;;;2.00;2.00;;;;;25.45;49.60;101448.38;5020563;28;45173;-65
2022/08/01 11:08:50;;;;;;;;;3.00;3.00;;;;;25.47;50.31;101444.50;5020389;28;45414;-65
2022/08/01 11:11:16;;;;;;;;;2.25;2.25;;;;;25.50;49.39;101452.44;5020275;28;45524;-65
2022/08/01 11:14:12;;;;;;;;;4.25;3.25;;;;;25.52;49.73;101453.16;5019827;28;45347;-65
2022/08/01 11:16:40;;;;;;;;;3.00;3.00;;;;;25.55;50.01;101452.06;5018482;28;45418;-65
2022/08/01 11:19:08;;;;;;;;;2.75;2.75;;;;;25.55;49.90;101451.19;5019809;28;45397;-65
2022/08/01 11:21:52;;;;;;;;;4.00;4.00;;;;;25.59;50.50;101458.13;5019908;28;46960;-65
2022/08/01 11:24:48;;;;;;;;;4.00;4.00;;;;;25.60;50.14;101458.00;5019117;28;45335;-65
2022/08/01 11:27:17;;;;;;;;;5.00;4.00;;;;;25.62;49.73;101447.78;5019848;28;45300;-66
2022/08/01 11:29:43;;;;;;;;;5.75;4.00;;;;;25.62;49.70;101455.13;5018500;28;45324;-65